sensor_id;sensor_type;location;lat;lon;timestamp;P1;durP1;ratioP1;P2;durP2;ratioP2
16577;SDS011;8401;52.528;13.340;2023-04-28T00:00:50;7.27;;;3.60;;
16577;SDS011;8401;52.528;13.340;2023-04-28T00:03:16;28.27;;;3.43;;
16577;SDS011;8401;52.528;13.340;2023-04-28T00:05:42;6.13;;;3.27;;
16577;SDS011;8401;52.528;13.340;2023-04-28T00:08:08;7.07;;;3.13;;
16577;SDS011;8401;52.528;13.340;2023-04-28T00:10:33;5.27;;;3.13;;
16577;SDS011;8401;52.528;13.340;2023-04-28T00:12:59;4.43;;;3.10;;
16577;SDS011;8401;52.528;13.340;2023-04-28T00:15:25;5.77;;;3.17;;
16577;SDS011;8401;52.528;13.340;2023-04-28T00:17:51;7.03;;;3.40;;
16577;SDS011;8401;52.528;13.340;2023-04-28T00:20:17;6.23;;;3.20;;
16577;SDS011;8401;52.528;13.340;2023-04-28T00:22:42;5.13;;;3.27;;
16577;SDS011;8401;52.528;13.340;2023-04-28T00:25:08;6.10;;;3.20;;
16577;SDS011;8401;52.528;13.340;2023-04-28T00:27:34;8.10;;;2.97;;
16577;SDS011;8401;52.528;13.340;2023-04-28T00:30:00;6.20;;;3.53;;
16577;SDS011;8401;52.528;13.340;2023-04-28T00:32:26;5.43;;;3.43;;
16577;SDS011;8401;52.528;13.340;2023-04-28T00:34:52;5.60;;;3.00;;
16577;SDS011;8401;52.528;13.340;2023-04-28T00:37:18;5.83;;;3.10;;
16577;SDS011;8401;52.528;13.340;2023-04-28T00:39:44;5.93;;;3.40;;
16577;SDS011;8401;52.528;13.340;2023-04-28T00:42:13;8.97;;;3.63;;
16577;SDS011;8401;52.528;13.340;2023-04-28T00:44:39;5.73;;;3.37;;
16577;SDS011;8401;52.528;13.340;2023-04-28T00:47:05;4.93;;;3.03;;
16577;SDS011;8401;52.528;13.340;2023-04-28T00:49:33;4.67;;;3.20;;
16577;SDS011;8401;52.528;13.340;2023-04-28T00:52:03;5.27;;;3.20;;
16577;SDS011;8401;52.528;13.340;2023-04-28T00:54:30;6.77;;;3.20;;
16577;SDS011;8401;52.528;13.340;2023-04-28T00:57:00;4.73;;;3.17;;
16577;SDS011;8401;52.528;13.340;2023-04-28T00:59:26;4.37;;;2.80;;
16577;SDS011;8401;52.528;13.340;2023-04-28T01:01:55;5.43;;;3.00;;
16577;SDS011;8401;52.528;13.340;2023-04-28T01:04:21;5.17;;;3.00;;
16577;SDS011;8401;52.528;13.340;2023-04-28T01:06:47;5.57;;;3.43;;
16577;SDS011;8401;52.528;13.340;2023-04-28T01:09:14;5.67;;;3.20;;
16577;SDS011;8401;52.528;13.340;2023-04-28T01:11:40;4.63;;;3.10;;
16577;SDS011;8401;52.528;13.340;2023-04-28T01:14:06;4.87;;;2.77;;
16577;SDS011;8401;52.528;13.340;2023-04-28T01:16:32;5.93;;;3.17;;
16577;SDS011;8401;52.528;13.340;2023-04-28T01:18:59;5.00;;;2.50;;
16577;SDS011;8401;52.528;13.340;2023-04-28T01:21:34;4.60;;;2.73;;
16577;SDS011;8401;52.528;13.340;2023-04-28T01:24:00;4.93;;;2.77;;
16577;SDS011;8401;52.528;13.340;2023-04-28T01:26:27;7.57;;;2.77;;
16577;SDS011;8401;52.528;13.340;2023-04-28T01:28:52;6.50;;;3.07;;
16577;SDS011;8401;52.528;13.340;2023-04-28T01:31:18;5.83;;;2.77;;
16577;SDS011;8401;52.528;13.340;2023-04-28T01:33:44;5.87;;;2.93;;
16577;SDS011;8401;52.528;13.340;2023-04-28T01:36:09;5.97;;;3.30;;
16577;SDS011;8401;52.528;13.340;2023-04-28T01:38:35;6.40;;;3.23;;
16577;SDS011;8401;52.528;13.340;2023-04-28T01:41:01;4.77;;;2.73;;
16577;SDS011;8401;52.528;13.340;2023-04-28T01:43:27;4.07;;;2.57;;
16577;SDS011;8401;52.528;13.340;2023-04-28T01:45:53;6.97;;;2.80;;
16577;SDS011;8401;52.528;13.340;2023-04-28T01:48:18;3.40;;;2.60;;
16577;SDS011;8401;52.528;13.340;2023-04-28T01:50:44;5.57;;;2.70;;
16577;SDS011;8401;52.528;13.340;2023-04-28T01:53:10;5.60;;;2.63;;
16577;SDS011;8401;52.528;13.340;2023-04-28T01:55:36;4.10;;;2.97;;
16577;SDS011;8401;52.528;13.340;2023-04-28T01:58:02;5.17;;;2.90;;
16577;SDS011;8401;52.528;13.340;2023-04-28T02:00:28;4.57;;;2.90;;
16577;SDS011;8401;52.528;13.340;2023-04-28T02:02:54;4.60;;;2.87;;
16577;SDS011;8401;52.528;13.340;2023-04-28T02:05:20;5.63;;;2.90;;
16577;SDS011;8401;52.528;13.340;2023-04-28T02:07:46;6.67;;;3.70;;
16577;SDS011;8401;52.528;13.340;2023-04-28T02:10:11;6.57;;;3.30;;
16577;SDS011;8401;52.528;13.340;2023-04-28T02:12:37;8.90;;;3.80;;
16577;SDS011;8401;52.528;13.340;2023-04-28T02:15:03;4.57;;;3.30;;
16577;SDS011;8401;52.528;13.340;2023-04-28T02:17:29;8.33;;;3.70;;
16577;SDS011;8401;52.528;13.340;2023-04-28T02:19:55;6.73;;;3.70;;
16577;SDS011;8401;52.528;13.340;2023-04-28T02:22:21;7.03;;;4.23;;
16577;SDS011;8401;52.528;13.340;2023-04-28T02:24:46;10.90;;;3.90;;
16577;SDS011;8401;52.528;13.340;2023-04-28T02:27:12;5.33;;;3.70;;
16577;SDS011;8401;52.528;13.340;2023-04-28T02:29:38;8.10;;;3.47;;
16577;SDS011;8401;52.528;13.340;2023-04-28T02:32:03;7.13;;;3.70;;
16577;SDS011;8401;52.528;13.340;2023-04-28T02:34:29;6.87;;;4.60;;
16577;SDS011;8401;52.528;13.340;2023-04-28T02:36:55;6.70;;;3.67;;
16577;SDS011;8401;52.528;13.340;2023-04-28T02:39:20;6.23;;;3.80;;
16577;SDS011;8401;52.528;13.340;2023-04-28T02:41:49;5.13;;;3.27;;
16577;SDS011;8401;52.528;13.340;2023-04-28T02:44:16;5.50;;;3.67;;
16577;SDS011;8401;52.528;13.340;2023-04-28T02:46:41;5.77;;;3.70;;
16577;SDS011;8401;52.528;13.340;2023-04-28T02:49:07;6.50;;;3.50;;
16577;SDS011;8401;52.528;13.340;2023-04-28T02:51:33;6.47;;;3.70;;
16577;SDS011;8401;52.528;13.340;2023-04-28T02:53:58;5.67;;;3.63;;
16577;SDS011;8401;52.528;13.340;2023-04-28T02:56:24;6.03;;;3.50;;
16577;SDS011;8401;52.528;13.340;2023-04-28T02:58:50;5.43;;;3.70;;
16577;SDS011;8401;52.528;13.340;2023-04-28T03:01:15;5.20;;;3.77;;
16577;SDS011;8401;52.528;13.340;2023-04-28T03:03:41;6.47;;;3.47;;
16577;SDS011;8401;52.528;13.340;2023-04-28T03:06:07;5.37;;;3.67;;
16577;SDS011;8401;52.528;13.340;2023-04-28T03:08:32;4.70;;;3.70;;
16577;SDS011;8401;52.528;13.340;2023-04-28T03:10:58;4.37;;;3.20;;
16577;SDS011;8401;52.528;13.340;2023-04-28T03:13:23;5.70;;;3.07;;
16577;SDS011;8401;52.528;13.340;2023-04-28T03:15:49;6.33;;;3.50;;
16577;SDS011;8401;52.528;13.340;2023-04-28T03:18:16;6.90;;;3.30;;
16577;SDS011;8401;52.528;13.340;2023-04-28T03:20:42;5.17;;;3.63;;
16577;SDS011;8401;52.528;13.340;2023-04-28T03:23:08;4.80;;;3.20;;
16577;SDS011;8401;52.528;13.340;2023-04-28T03:25:34;4.20;;;3.30;;
16577;SDS011;8401;52.528;13.340;2023-04-28T03:28:00;6.37;;;3.33;;
16577;SDS011;8401;52.528;13.340;2023-04-28T03:30:25;6.77;;;3.80;;
16577;SDS011;8401;52.528;13.340;2023-04-28T03:32:51;7.90;;;3.70;;
16577;SDS011;8401;52.528;13.340;2023-04-28T03:35:17;10.67;;;3.53;;
16577;SDS011;8401;52.528;13.340;2023-04-28T03:37:42;4.47;;;3.50;;
16577;SDS011;8401;52.528;13.340;2023-04-28T03:40:08;6.00;;;3.07;;
16577;SDS011;8401;52.528;13.340;2023-04-28T03:42:34;8.90;;;3.40;;
16577;SDS011;8401;52.528;13.340;2023-04-28T03:45:00;4.67;;;3.40;;
16577;SDS011;8401;52.528;13.340;2023-04-28T03:47:26;6.97;;;3.77;;
16577;SDS011;8401;52.528;13.340;2023-04-28T03:49:52;5.97;;;3.40;;
16577;SDS011;8401;52.528;13.340;2023-04-28T03:52:18;8.07;;;3.70;;
16577;SDS011;8401;52.528;13.340;2023-04-28T03:54:43;5.50;;;3.43;;
16577;SDS011;8401;52.528;13.340;2023-04-28T03:57:10;5.27;;;3.23;;
16577;SDS011;8401;52.528;13.340;2023-04-28T03:59:36;6.70;;;3.50;;
16577;SDS011;8401;52.528;13.340;2023-04-28T04:02:02;6.87;;;3.37;;
16577;SDS011;8401;52.528;13.340;2023-04-28T04:04:27;6.33;;;3.70;;
16577;SDS011;8401;52.528;13.340;2023-04-28T04:06:53;8.37;;;3.83;;
16577;SDS011;8401;52.528;13.340;2023-04-28T04:09:18;7.33;;;3.50;;
16577;SDS011;8401;52.528;13.340;2023-04-28T04:11:44;5.60;;;3.70;;
16577;SDS011;8401;52.528;13.340;2023-04-28T04:14:10;8.10;;;3.50;;
16577;SDS011;8401;52.528;13.340;2023-04-28T04:16:35;8.57;;;3.50;;
16577;SDS011;8401;52.528;13.340;2023-04-28T04:19:01;8.00;;;4.00;;
16577;SDS011;8401;52.528;13.340;2023-04-28T04:21:27;7.10;;;3.70;;
16577;SDS011;8401;52.528;13.340;2023-04-28T04:23:52;4.53;;;3.33;;
16577;SDS011;8401;52.528;13.340;2023-04-28T04:26:18;7.80;;;3.80;;
16577;SDS011;8401;52.528;13.340;2023-04-28T04:28:46;4.67;;;3.53;;
16577;SDS011;8401;52.528;13.340;2023-04-28T04:31:12;6.87;;;3.07;;
16577;SDS011;8401;52.528;13.340;2023-04-28T04:33:38;7.10;;;3.80;;
16577;SDS011;8401;52.528;13.340;2023-04-28T04:36:04;7.77;;;3.50;;
16577;SDS011;8401;52.528;13.340;2023-04-28T04:38:30;5.73;;;3.33;;
16577;SDS011;8401;52.528;13.340;2023-04-28T04:40:55;6.83;;;4.23;;
16577;SDS011;8401;52.528;13.340;2023-04-28T04:43:21;6.33;;;3.53;;
16577;SDS011;8401;52.528;13.340;2023-04-28T04:45:47;6.83;;;3.50;;
16577;SDS011;8401;52.528;13.340;2023-04-28T04:48:13;6.30;;;3.93;;
16577;SDS011;8401;52.528;13.340;2023-04-28T04:50:39;7.23;;;3.63;;
16577;SDS011;8401;52.528;13.340;2023-04-28T04:53:05;5.87;;;2.97;;
16577;SDS011;8401;52.528;13.340;2023-04-28T04:55:30;6.17;;;3.27;;
16577;SDS011;8401;52.528;13.340;2023-04-28T04:57:56;5.87;;;4.23;;
16577;SDS011;8401;52.528;13.340;2023-04-28T05:00:22;5.57;;;3.60;;
16577;SDS011;8401;52.528;13.340;2023-04-28T05:02:48;8.47;;;3.37;;
16577;SDS011;8401;52.528;13.340;2023-04-28T05:05:13;5.83;;;3.70;;
16577;SDS011;8401;52.528;13.340;2023-04-28T05:07:39;5.50;;;3.70;;
16577;SDS011;8401;52.528;13.340;2023-04-28T05:10:05;6.80;;;3.63;;
16577;SDS011;8401;52.528;13.340;2023-04-28T05:12:31;5.50;;;3.67;;
16577;SDS011;8401;52.528;13.340;2023-04-28T05:14:57;6.73;;;3.37;;
16577;SDS011;8401;52.528;13.340;2023-04-28T05:17:22;6.47;;;3.90;;
16577;SDS011;8401;52.528;13.340;2023-04-28T05:19:48;9.17;;;3.80;;
16577;SDS011;8401;52.528;13.340;2023-04-28T05:22:14;9.53;;;3.60;;
16577;SDS011;8401;52.528;13.340;2023-04-28T05:24:40;6.90;;;3.17;;
16577;SDS011;8401;52.528;13.340;2023-04-28T05:27:07;5.33;;;3.53;;
16577;SDS011;8401;52.528;13.340;2023-04-28T05:29:33;6.70;;;3.23;;
16577;SDS011;8401;52.528;13.340;2023-04-28T05:31:59;5.30;;;3.40;;
16577;SDS011;8401;52.528;13.340;2023-04-28T05:34:24;6.57;;;3.30;;
16577;SDS011;8401;52.528;13.340;2023-04-28T05:36:50;4.70;;;3.30;;
16577;SDS011;8401;52.528;13.340;2023-04-28T05:39:19;7.33;;;3.77;;
16577;SDS011;8401;52.528;13.340;2023-04-28T05:41:45;7.07;;;3.87;;
16577;SDS011;8401;52.528;13.340;2023-04-28T05:44:10;6.70;;;4.03;;
16577;SDS011;8401;52.528;13.340;2023-04-28T05:46:36;7.33;;;3.27;;
16577;SDS011;8401;52.528;13.340;2023-04-28T05:49:01;8.43;;;4.33;;
16577;SDS011;8401;52.528;13.340;2023-04-28T05:51:27;6.07;;;3.70;;
16577;SDS011;8401;52.528;13.340;2023-04-28T05:53:53;8.87;;;3.87;;
16577;SDS011;8401;52.528;13.340;2023-04-28T05:56:19;7.50;;;4.20;;
16577;SDS011;8401;52.528;13.340;2023-04-28T05:58:45;9.47;;;3.80;;
16577;SDS011;8401;52.528;13.340;2023-04-28T06:01:11;6.03;;;3.53;;
16577;SDS011;8401;52.528;13.340;2023-04-28T06:03:37;8.53;;;3.90;;
16577;SDS011;8401;52.528;13.340;2023-04-28T06:06:05;7.70;;;3.60;;
16577;SDS011;8401;52.528;13.340;2023-04-28T06:08:31;6.53;;;3.70;;
16577;SDS011;8401;52.528;13.340;2023-04-28T06:10:57;12.47;;;3.60;;
16577;SDS011;8401;52.528;13.340;2023-04-28T06:13:23;12.90;;;3.90;;
16577;SDS011;8401;52.528;13.340;2023-04-28T06:15:48;6.20;;;3.73;;
16577;SDS011;8401;52.528;13.340;2023-04-28T06:18:14;6.17;;;3.53;;
16577;SDS011;8401;52.528;13.340;2023-04-28T06:20:40;5.27;;;3.60;;
16577;SDS011;8401;52.528;13.340;2023-04-28T06:23:06;6.43;;;3.60;;
16577;SDS011;8401;52.528;13.340;2023-04-28T06:25:33;5.93;;;3.43;;
16577;SDS011;8401;52.528;13.340;2023-04-28T06:28:00;5.33;;;3.53;;
16577;SDS011;8401;52.528;13.340;2023-04-28T06:30:26;5.30;;;3.70;;
16577;SDS011;8401;52.528;13.340;2023-04-28T06:32:51;8.13;;;4.10;;
16577;SDS011;8401;52.528;13.340;2023-04-28T06:35:17;4.80;;;3.67;;
16577;SDS011;8401;52.528;13.340;2023-04-28T06:37:43;5.73;;;3.80;;
16577;SDS011;8401;52.528;13.340;2023-04-28T06:40:08;6.07;;;3.63;;
16577;SDS011;8401;52.528;13.340;2023-04-28T06:42:35;4.17;;;3.03;;
16577;SDS011;8401;52.528;13.340;2023-04-28T06:45:01;6.30;;;4.13;;
16577;SDS011;8401;52.528;13.340;2023-04-28T06:47:27;9.00;;;4.10;;
16577;SDS011;8401;52.528;13.340;2023-04-28T06:49:52;6.37;;;3.70;;
16577;SDS011;8401;52.528;13.340;2023-04-28T06:52:18;6.67;;;4.07;;
16577;SDS011;8401;52.528;13.340;2023-04-28T06:54:46;9.10;;;3.80;;
16577;SDS011;8401;52.528;13.340;2023-04-28T06:57:12;7.60;;;3.53;;
16577;SDS011;8401;52.528;13.340;2023-04-28T06:59:37;9.10;;;4.23;;
16577;SDS011;8401;52.528;13.340;2023-04-28T07:02:03;6.27;;;3.53;;
16577;SDS011;8401;52.528;13.340;2023-04-28T07:04:29;6.23;;;3.33;;
16577;SDS011;8401;52.528;13.340;2023-04-28T07:06:55;5.50;;;3.43;;
16577;SDS011;8401;52.528;13.340;2023-04-28T07:09:20;5.10;;;3.50;;
16577;SDS011;8401;52.528;13.340;2023-04-28T07:11:46;4.83;;;3.57;;
16577;SDS011;8401;52.528;13.340;2023-04-28T07:14:12;4.80;;;3.23;;
16577;SDS011;8401;52.528;13.340;2023-04-28T07:16:37;8.33;;;3.20;;
16577;SDS011;8401;52.528;13.340;2023-04-28T07:19:03;7.80;;;3.93;;
16577;SDS011;8401;52.528;13.340;2023-04-28T07:21:29;6.70;;;2.97;;
16577;SDS011;8401;52.528;13.340;2023-04-28T07:23:55;6.93;;;3.07;;
16577;SDS011;8401;52.528;13.340;2023-04-28T07:26:23;6.10;;;3.10;;
16577;SDS011;8401;52.528;13.340;2023-04-28T07:28:49;7.67;;;3.30;;
16577;SDS011;8401;52.528;13.340;2023-04-28T07:31:15;3.97;;;2.10;;
16577;SDS011;8401;52.528;13.340;2023-04-28T07:33:41;7.70;;;3.57;;
16577;SDS011;8401;52.528;13.340;2023-04-28T07:36:07;5.47;;;2.87;;
16577;SDS011;8401;52.528;13.340;2023-04-28T07:38:33;4.40;;;2.70;;
16577;SDS011;8401;52.528;13.340;2023-04-28T07:40:59;6.57;;;3.47;;
16577;SDS011;8401;52.528;13.340;2023-04-28T07:43:25;6.23;;;2.80;;
16577;SDS011;8401;52.528;13.340;2023-04-28T07:45:51;3.67;;;2.63;;
16577;SDS011;8401;52.528;13.340;2023-04-28T07:48:17;7.20;;;3.10;;
16577;SDS011;8401;52.528;13.340;2023-04-28T07:50:43;5.53;;;3.03;;
16577;SDS011;8401;52.528;13.340;2023-04-28T07:53:08;6.73;;;3.20;;
16577;SDS011;8401;52.528;13.340;2023-04-28T07:55:34;7.27;;;3.00;;
16577;SDS011;8401;52.528;13.340;2023-04-28T07:58:00;7.60;;;2.93;;
16577;SDS011;8401;52.528;13.340;2023-04-28T08:00:26;5.77;;;3.00;;
16577;SDS011;8401;52.528;13.340;2023-04-28T08:02:51;4.60;;;2.43;;
16577;SDS011;8401;52.528;13.340;2023-04-28T08:05:17;4.13;;;3.27;;
16577;SDS011;8401;52.528;13.340;2023-04-28T08:07:43;5.77;;;3.30;;
16577;SDS011;8401;52.528;13.340;2023-04-28T08:10:09;5.77;;;3.43;;
16577;SDS011;8401;52.528;13.340;2023-04-28T08:12:35;7.40;;;3.10;;
16577;SDS011;8401;52.528;13.340;2023-04-28T08:15:02;7.27;;;3.37;;
16577;SDS011;8401;52.528;13.340;2023-04-28T08:17:27;9.57;;;3.77;;
16577;SDS011;8401;52.528;13.340;2023-04-28T08:19:53;6.23;;;3.67;;
16577;SDS011;8401;52.528;13.340;2023-04-28T08:22:19;8.20;;;4.07;;
16577;SDS011;8401;52.528;13.340;2023-04-28T08:24:44;10.77;;;4.27;;
16577;SDS011;8401;52.528;13.340;2023-04-28T08:27:10;10.17;;;4.23;;
16577;SDS011;8401;52.528;13.340;2023-04-28T08:29:36;5.30;;;3.77;;
16577;SDS011;8401;52.528;13.340;2023-04-28T08:32:02;7.63;;;3.73;;
16577;SDS011;8401;52.528;13.340;2023-04-28T08:34:30;7.07;;;3.07;;
16577;SDS011;8401;52.528;13.340;2023-04-28T08:36:56;5.90;;;3.13;;
16577;SDS011;8401;52.528;13.340;2023-04-28T08:39:22;5.27;;;3.57;;
16577;SDS011;8401;52.528;13.340;2023-04-28T08:41:50;11.13;;;3.80;;
16577;SDS011;8401;52.528;13.340;2023-04-28T08:44:16;7.37;;;3.87;;
16577;SDS011;8401;52.528;13.340;2023-04-28T08:46:43;6.50;;;3.60;;
16577;SDS011;8401;52.528;13.340;2023-04-28T08:49:11;6.13;;;3.73;;
16577;SDS011;8401;52.528;13.340;2023-04-28T08:51:45;7.43;;;3.37;;
16577;SDS011;8401;52.528;13.340;2023-04-28T08:54:14;8.43;;;3.53;;
16577;SDS011;8401;52.528;13.340;2023-04-28T08:56:41;5.67;;;3.60;;
16577;SDS011;8401;52.528;13.340;2023-04-28T08:59:10;9.03;;;3.57;;
16577;SDS011;8401;52.528;13.340;2023-04-28T09:01:39;6.23;;;3.90;;
16577;SDS011;8401;52.528;13.340;2023-04-28T09:04:05;5.47;;;3.70;;
16577;SDS011;8401;52.528;13.340;2023-04-28T09:06:35;6.90;;;3.77;;
16577;SDS011;8401;52.528;13.340;2023-04-28T09:11:57;4.80;;;3.30;;
16577;SDS011;8401;52.528;13.340;2023-04-28T09:14:25;8.40;;;5.40;;
16577;SDS011;8401;52.528;13.340;2023-04-28T09:16:52;8.23;;;4.27;;
16577;SDS011;8401;52.528;13.340;2023-04-28T09:19:18;8.93;;;4.87;;
16577;SDS011;8401;52.528;13.340;2023-04-28T09:21:54;6.77;;;3.90;;
16577;SDS011;8401;52.528;13.340;2023-04-28T09:27:04;4.67;;;3.23;;
16577;SDS011;8401;52.528;13.340;2023-04-28T09:29:31;6.97;;;4.47;;
16577;SDS011;8401;52.528;13.340;2023-04-28T09:34:58;5.67;;;3.77;;
16577;SDS011;8401;52.528;13.340;2023-04-28T09:37:26;10.37;;;4.40;;
16577;SDS011;8401;52.528;13.340;2023-04-28T09:39:54;8.87;;;4.10;;
16577;SDS011;8401;52.528;13.340;2023-04-28T09:42:30;8.97;;;4.57;;
16577;SDS011;8401;52.528;13.340;2023-04-28T09:45:02;5.33;;;3.73;;
16577;SDS011;8401;52.528;13.340;2023-04-28T09:47:33;6.17;;;4.43;;
16577;SDS011;8401;52.528;13.340;2023-04-28T09:50:01;8.87;;;4.40;;
16577;SDS011;8401;52.528;13.340;2023-04-28T09:52:33;10.60;;;4.57;;
16577;SDS011;8401;52.528;13.340;2023-04-28T09:55:00;10.27;;;4.47;;
16577;SDS011;8401;52.528;13.340;2023-04-28T09:57:32;6.10;;;4.05;;
16577;SDS011;8401;52.528;13.340;2023-04-28T09:59:58;7.40;;;4.10;;
16577;SDS011;8401;52.528;13.340;2023-04-28T10:02:25;7.50;;;4.43;;
16577;SDS011;8401;52.528;13.340;2023-04-28T10:04:51;8.45;;;4.15;;
16577;SDS011;8401;52.528;13.340;2023-04-28T10:07:18;5.88;;;3.80;;
16577;SDS011;8401;52.528;13.340;2023-04-28T10:09:45;10.48;;;4.57;;
16577;SDS011;8401;52.528;13.340;2023-04-28T10:12:14;8.23;;;4.65;;
16577;SDS011;8401;52.528;13.340;2023-04-28T10:14:47;6.63;;;3.78;;
16577;SDS011;8401;52.528;13.340;2023-04-28T10:17:21;6.22;;;4.22;;
16577;SDS011;8401;52.528;13.340;2023-04-28T10:19:49;9.30;;;4.78;;
16577;SDS011;8401;52.528;13.340;2023-04-28T10:27:31;5.90;;;4.15;;
16577;SDS011;8401;52.528;13.340;2023-04-28T10:30:09;9.60;;;3.78;;
16577;SDS011;8401;52.528;13.340;2023-04-28T10:32:41;7.82;;;4.03;;
16577;SDS011;8401;52.528;13.340;2023-04-28T10:40:32;11.88;;;5.60;;
16577;SDS011;8401;52.528;13.340;2023-04-28T10:43:51;5.95;;;4.47;;
16577;SDS011;8401;52.528;13.340;2023-04-28T10:56:20;7.50;;;4.20;;
16577;SDS011;8401;52.528;13.340;2023-04-28T10:58:51;8.43;;;4.57;;
16577;SDS011;8401;52.528;13.340;2023-04-28T11:01:23;7.22;;;4.63;;
16577;SDS011;8401;52.528;13.340;2023-04-28T11:04:02;7.55;;;4.53;;
16577;SDS011;8401;52.528;13.340;2023-04-28T11:14:33;8.82;;;4.80;;
16577;SDS011;8401;52.528;13.340;2023-04-28T11:17:00;8.20;;;4.90;;
16577;SDS011;8401;52.528;13.340;2023-04-28T11:19:35;6.85;;;4.07;;
16577;SDS011;8401;52.528;13.340;2023-04-28T11:22:03;10.65;;;4.50;;
16577;SDS011;8401;52.528;13.340;2023-04-28T11:24:36;6.35;;;4.15;;
16577;SDS011;8401;52.528;13.340;2023-04-28T11:27:01;9.02;;;5.15;;
16577;SDS011;8401;52.528;13.340;2023-04-28T11:31:58;7.70;;;4.53;;
16577;SDS011;8401;52.528;13.340;2023-04-28T11:34:24;6.97;;;4.75;;
16577;SDS011;8401;52.528;13.340;2023-04-28T11:36:49;8.93;;;4.75;;
16577;SDS011;8401;52.528;13.340;2023-04-28T11:39:16;7.40;;;4.10;;
16577;SDS011;8401;52.528;13.340;2023-04-28T11:41:49;5.97;;;4.13;;
16577;SDS011;8401;52.528;13.340;2023-04-28T11:44:15;5.88;;;4.47;;
16577;SDS011;8401;52.528;13.340;2023-04-28T11:46:44;6.45;;;4.72;;
16577;SDS011;8401;52.528;13.340;2023-04-28T11:49:14;10.13;;;5.03;;
16577;SDS011;8401;52.528;13.340;2023-04-28T11:51:40;8.43;;;4.93;;
16577;SDS011;8401;52.528;13.340;2023-04-28T11:54:07;8.77;;;4.53;;
16577;SDS011;8401;52.528;13.340;2023-04-28T11:56:36;10.03;;;5.33;;
16577;SDS011;8401;52.528;13.340;2023-04-28T11:59:07;7.57;;;5.30;;
16577;SDS011;8401;52.528;13.340;2023-04-28T12:01:34;6.40;;;5.17;;
16577;SDS011;8401;52.528;13.340;2023-04-28T12:04:09;9.07;;;4.90;;
16577;SDS011;8401;52.528;13.340;2023-04-28T12:06:36;8.07;;;4.47;;
16577;SDS011;8401;52.528;13.340;2023-04-28T12:09:24;12.27;;;5.20;;
16577;SDS011;8401;52.528;13.340;2023-04-28T12:11:53;8.73;;;5.35;;
16577;SDS011;8401;52.528;13.340;2023-04-28T12:14:20;7.77;;;5.27;;
16577;SDS011;8401;52.528;13.340;2023-04-28T12:16:46;9.57;;;5.13;;
16577;SDS011;8401;52.528;13.340;2023-04-28T12:19:13;7.35;;;5.25;;
16577;SDS011;8401;52.528;13.340;2023-04-28T12:21:40;10.10;;;5.10;;
16577;SDS011;8401;52.528;13.340;2023-04-28T12:24:13;7.57;;;5.00;;
16577;SDS011;8401;52.528;13.340;2023-04-28T12:26:39;6.13;;;4.80;;
16577;SDS011;8401;52.528;13.340;2023-04-28T12:29:04;10.97;;;5.17;;
16577;SDS011;8401;52.528;13.340;2023-04-28T12:31:30;7.67;;;5.20;;
16577;SDS011;8401;52.528;13.340;2023-04-28T12:33:56;7.13;;;5.37;;
16577;SDS011;8401;52.528;13.340;2023-04-28T12:36:22;7.43;;;5.13;;
16577;SDS011;8401;52.528;13.340;2023-04-28T12:38:48;9.07;;;4.40;;
16577;SDS011;8401;52.528;13.340;2023-04-28T12:41:14;9.97;;;5.80;;
16577;SDS011;8401;52.528;13.340;2023-04-28T12:43:40;10.07;;;5.30;;
16577;SDS011;8401;52.528;13.340;2023-04-28T12:46:08;10.30;;;5.03;;
16577;SDS011;8401;52.528;13.340;2023-04-28T12:48:35;6.47;;;5.10;;
16577;SDS011;8401;52.528;13.340;2023-04-28T12:51:01;7.77;;;5.40;;
16577;SDS011;8401;52.528;13.340;2023-04-28T12:53:27;8.60;;;4.83;;
16577;SDS011;8401;52.528;13.340;2023-04-28T12:55:52;9.70;;;5.30;;
16577;SDS011;8401;52.528;13.340;2023-04-28T12:58:18;9.27;;;5.10;;
16577;SDS011;8401;52.528;13.340;2023-04-28T13:00:44;8.67;;;4.87;;
16577;SDS011;8401;52.528;13.340;2023-04-28T13:03:09;10.27;;;5.30;;
16577;SDS011;8401;52.528;13.340;2023-04-28T13:05:35;8.57;;;4.93;;
16577;SDS011;8401;52.528;13.340;2023-04-28T13:08:01;9.80;;;5.30;;
16577;SDS011;8401;52.528;13.340;2023-04-28T13:10:26;8.93;;;5.30;;
16577;SDS011;8401;52.528;13.340;2023-04-28T13:12:52;6.80;;;4.63;;
16577;SDS011;8401;52.528;13.340;2023-04-28T13:15:18;7.53;;;4.57;;
16577;SDS011;8401;52.528;13.340;2023-04-28T13:17:44;7.17;;;4.40;;
16577;SDS011;8401;52.528;13.340;2023-04-28T13:20:10;8.80;;;4.90;;
16577;SDS011;8401;52.528;13.340;2023-04-28T13:22:36;7.50;;;4.77;;
16577;SDS011;8401;52.528;13.340;2023-04-28T13:25:02;9.87;;;5.20;;
16577;SDS011;8401;52.528;13.340;2023-04-28T13:27:27;10.30;;;4.93;;
16577;SDS011;8401;52.528;13.340;2023-04-28T13:29:54;8.83;;;4.53;;
16577;SDS011;8401;52.528;13.340;2023-04-28T13:32:23;9.67;;;4.80;;
16577;SDS011;8401;52.528;13.340;2023-04-28T13:34:49;7.43;;;4.80;;
16577;SDS011;8401;52.528;13.340;2023-04-28T13:37:14;8.17;;;4.80;;
16577;SDS011;8401;52.528;13.340;2023-04-28T13:39:40;8.70;;;4.30;;
16577;SDS011;8401;52.528;13.340;2023-04-28T13:42:06;6.00;;;4.50;;
16577;SDS011;8401;52.528;13.340;2023-04-28T13:44:32;6.47;;;4.30;;
16577;SDS011;8401;52.528;13.340;2023-04-28T13:46:58;6.53;;;4.70;;
16577;SDS011;8401;52.528;13.340;2023-04-28T13:49:24;9.37;;;5.10;;
16577;SDS011;8401;52.528;13.340;2023-04-28T13:51:50;9.47;;;5.20;;
16577;SDS011;8401;52.528;13.340;2023-04-28T13:54:16;7.80;;;4.90;;
16577;SDS011;8401;52.528;13.340;2023-04-28T13:56:41;5.97;;;4.47;;
16577;SDS011;8401;52.528;13.340;2023-04-28T13:59:07;10.13;;;5.50;;
16577;SDS011;8401;52.528;13.340;2023-04-28T14:01:33;9.03;;;5.23;;
16577;SDS011;8401;52.528;13.340;2023-04-28T14:03:58;7.83;;;4.87;;
16577;SDS011;8401;52.528;13.340;2023-04-28T14:06:25;9.13;;;5.33;;
16577;SDS011;8401;52.528;13.340;2023-04-28T14:08:51;10.30;;;5.57;;
16577;SDS011;8401;52.528;13.340;2023-04-28T14:11:17;9.23;;;5.17;;
16577;SDS011;8401;52.528;13.340;2023-04-28T14:13:42;8.17;;;5.20;;
16577;SDS011;8401;52.528;13.340;2023-04-28T14:16:08;7.60;;;4.80;;
16577;SDS011;8401;52.528;13.340;2023-04-28T14:18:33;9.40;;;5.43;;
16577;SDS011;8401;52.528;13.340;2023-04-28T14:20:59;6.83;;;5.43;;
16577;SDS011;8401;52.528;13.340;2023-04-28T14:23:26;7.97;;;5.70;;
16577;SDS011;8401;52.528;13.340;2023-04-28T14:25:52;8.37;;;5.33;;
16577;SDS011;8401;52.528;13.340;2023-04-28T14:28:22;9.53;;;5.70;;
16577;SDS011;8401;52.528;13.340;2023-04-28T14:30:47;7.10;;;4.97;;
16577;SDS011;8401;52.528;13.340;2023-04-28T14:33:14;9.90;;;5.47;;
16577;SDS011;8401;52.528;13.340;2023-04-28T14:35:39;9.20;;;5.90;;
16577;SDS011;8401;52.528;13.340;2023-04-28T14:38:05;9.30;;;5.00;;
16577;SDS011;8401;52.528;13.340;2023-04-28T14:40:31;8.97;;;5.83;;
16577;SDS011;8401;52.528;13.340;2023-04-28T14:42:57;6.80;;;4.77;;
16577;SDS011;8401;52.528;13.340;2023-04-28T14:45:22;7.40;;;4.97;;
16577;SDS011;8401;52.528;13.340;2023-04-28T14:47:48;8.13;;;5.20;;
16577;SDS011;8401;52.528;13.340;2023-04-28T14:50:14;8.57;;;4.83;;
16577;SDS011;8401;52.528;13.340;2023-04-28T14:52:40;8.73;;;5.20;;
16577;SDS011;8401;52.528;13.340;2023-04-28T14:55:06;8.63;;;5.03;;
16577;SDS011;8401;52.528;13.340;2023-04-28T14:57:32;8.50;;;5.57;;
16577;SDS011;8401;52.528;13.340;2023-04-28T14:59:59;7.13;;;4.77;;
16577;SDS011;8401;52.528;13.340;2023-04-28T15:02:25;8.27;;;5.53;;
16577;SDS011;8401;52.528;13.340;2023-04-28T15:04:53;7.47;;;5.20;;
16577;SDS011;8401;52.528;13.340;2023-04-28T15:07:22;10.27;;;5.33;;
16577;SDS011;8401;52.528;13.340;2023-04-28T15:09:48;9.27;;;5.70;;
16577;SDS011;8401;52.528;13.340;2023-04-28T15:12:15;10.50;;;6.00;;
16577;SDS011;8401;52.528;13.340;2023-04-28T15:14:40;8.90;;;5.20;;
16577;SDS011;8401;52.528;13.340;2023-04-28T15:17:06;6.50;;;4.60;;
16577;SDS011;8401;52.528;13.340;2023-04-28T15:19:32;10.27;;;5.43;;
16577;SDS011;8401;52.528;13.340;2023-04-28T15:21:58;8.93;;;5.20;;